createdAt,value
2017-08-22T00:00:11.255Z,1023.25
2017-08-22T00:01:20.788Z,1023.18
2017-08-22T00:02:30.637Z,1023.14
2017-08-22T00:03:39.960Z,1023.17
2017-08-22T00:04:49.811Z,1023.16
2017-08-22T00:05:59.341Z,1023.19
2017-08-22T00:07:08.878Z,1023.17
2017-08-22T00:08:18.082Z,1023.14
2017-08-22T00:09:27.290Z,1023.18
2017-08-22T00:10:37.151Z,1023.16
2017-08-22T00:11:46.681Z,1023.13
2017-08-22T00:12:56.211Z,1023.11
2017-08-22T00:14:05.737Z,1023.12
2017-08-22T00:15:16.011Z,1023.16
2017-08-22T00:16:25.538Z,1023.15
2017-08-22T00:17:34.441Z,1023.14
2017-08-22T00:18:43.970Z,1023.17
2017-08-22T00:19:52.848Z,1023.16
2017-08-22T00:21:03.030Z,1023.18
2017-08-22T00:22:11.914Z,1023.19
2017-08-22T00:23:22.088Z,1023.17
2017-08-22T00:24:31.622Z,1023.18
2017-08-22T00:25:40.826Z,1023.19
2017-08-22T00:26:50.359Z,1023.18
2017-08-22T00:27:59.885Z,1023.19
2017-08-22T00:29:09.412Z,1023.2
2017-08-22T00:30:18.618Z,1023.2
2017-08-22T00:31:28.145Z,1023.19
2017-08-22T00:32:38.002Z,1023.2
2017-08-22T00:33:47.549Z,1023.19
2017-08-22T00:34:57.074Z,1023.14
2017-08-22T00:36:06.280Z,1023.15
2017-08-22T00:37:16.139Z,1023.17
2017-08-22T00:38:25.664Z,1023.15
2017-08-22T00:39:35.188Z,1023.16
2017-08-22T00:40:44.080Z,1023.14
2017-08-22T00:41:53.291Z,1023.16
2017-08-22T00:43:02.497Z,1023.2
2017-08-22T00:44:11.705Z,1023.19
2017-08-22T00:45:21.881Z,1023.17
2017-08-22T00:46:31.414Z,1023.22
2017-08-22T00:47:40.617Z,1023.23
2017-08-22T00:48:50.468Z,1023.29
2017-08-22T00:49:59.666Z,1023.26
2017-08-22T00:51:08.873Z,1023.3
2017-08-22T00:52:18.076Z,1023.28
2017-08-22T00:53:26.962Z,1023.28
2017-08-22T00:54:36.812Z,1023.28
2017-08-22T00:55:45.743Z,1023.3
2017-08-22T00:56:55.593Z,1023.27
2017-08-22T00:58:05.126Z,1023.31
2017-08-22T00:59:14.653Z,1023.29
2017-08-22T01:00:24.177Z,1023.31
2017-08-22T01:01:33.058Z,1023.33
2017-08-22T01:02:42.911Z,1023.34
2017-08-22T01:03:52.441Z,1023.31
2017-08-22T01:05:02.611Z,1023.31
2017-08-22T01:06:11.817Z,1023.3
2017-08-22T01:07:21.346Z,1023.27
2017-08-22T01:08:30.549Z,1023.29
2017-08-22T01:09:40.397Z,1023.3
2017-08-22T01:10:49.598Z,1023.3
2017-08-22T01:11:58.476Z,1023.3
2017-08-22T01:13:07.726Z,1023.3
2017-08-22T01:14:17.587Z,1023.36
2017-08-22T01:15:27.112Z,1023.32
2017-08-22T01:16:36.005Z,1023.34
2017-08-22T01:17:45.855Z,1023.36
2017-08-22T01:18:55.063Z,1023.33
2017-08-22T01:20:04.600Z,1023.24
2017-08-22T01:21:14.123Z,1023.31
2017-08-22T01:22:23.010Z,1023.31
2017-08-22T01:23:32.545Z,1023.35
2017-08-22T01:24:41.747Z,1023.35
2017-08-22T01:25:51.597Z,1023.33
2017-08-22T01:27:00.805Z,1023.34
2017-08-22T01:28:10.334Z,1023.35
2017-08-22T01:29:19.911Z,1023.35
2017-08-22T01:30:29.163Z,1023.35
2017-08-22T01:31:38.379Z,1023.29
2017-08-22T01:32:47.906Z,1023.3
2017-08-22T01:33:57.432Z,1023.31
2017-08-22T01:35:06.963Z,1023.3
2017-08-22T01:36:16.824Z,1023.3
2017-08-22T01:37:26.024Z,1023.28
2017-08-22T01:38:35.880Z,1023.29
2017-08-22T01:39:45.410Z,1023.27
2017-08-22T01:40:55.589Z,1023.25
2017-08-22T01:42:04.802Z,1023.28
2017-08-22T01:43:14.326Z,1023.27
2017-08-22T01:44:23.206Z,1023.28
2017-08-22T01:45:33.057Z,1023.28
2017-08-22T01:46:42.587Z,1023.31
2017-08-22T01:47:52.120Z,1023.22
2017-08-22T01:49:01.983Z,1023.22
2017-08-22T01:50:12.482Z,1023.23
2017-08-22T01:51:22.009Z,1023.3
2017-08-22T01:52:31.544Z,1023.29
2017-08-22T01:53:40.745Z,1023.31
2017-08-22T01:54:50.272Z,1023.29
2017-08-22T01:55:59.796Z,1023.31
2017-08-22T01:57:09.002Z,1023.28
2017-08-22T01:58:18.849Z,1023.27
2017-08-22T01:59:28.053Z,1023.27
2017-08-22T02:00:37.591Z,1023.26
2017-08-22T02:01:46.801Z,1023.29
2017-08-22T02:02:56.325Z,1023.27
2017-08-22T02:04:06.507Z,1023.22
2017-08-22T02:05:16.032Z,1023.29
2017-08-22T02:06:25.238Z,1023.24
2017-08-22T02:07:34.442Z,1023.26
2017-08-22T02:08:43.329Z,1023.21
2017-08-22T02:09:53.180Z,1023.22
2017-08-22T02:11:02.160Z,1023.24
2017-08-22T02:12:12.009Z,1023.21
2017-08-22T02:13:20.897Z,1023.24
2017-08-22T02:14:30.104Z,1023.24
2017-08-22T02:15:39.639Z,1023.25
2017-08-22T02:16:48.839Z,1023.24
2017-08-22T02:17:58.691Z,1023.26
2017-08-22T02:19:08.221Z,1023.22
2017-08-22T02:20:18.080Z,1023.21
2017-08-22T02:21:27.282Z,1023.22
2017-08-22T02:22:37.510Z,1023.24
2017-08-22T02:23:47.359Z,1023.24
2017-08-22T02:24:56.889Z,1023.24
2017-08-22T02:26:06.420Z,1023.2
2017-08-22T02:27:15.946Z,1023.22
2017-08-22T02:28:24.823Z,1023.22
2017-08-22T02:29:34.028Z,1023.15
2017-08-22T02:30:43.553Z,1023.17
2017-08-22T02:31:53.084Z,1023.18
2017-08-22T02:33:02.937Z,1023.12
2017-08-22T02:34:13.129Z,1023.15
2017-08-22T02:35:22.977Z,1023.18
2017-08-22T02:36:32.534Z,1023.11
2017-08-22T02:37:42.388Z,1023.11
2017-08-22T02:38:51.916Z,1023.09
2017-08-22T02:40:01.175Z,1023.06
2017-08-22T02:41:10.721Z,1023.09
2017-08-22T02:42:20.252Z,1023.11
2017-08-22T02:43:29.457Z,1023.1
2017-08-22T02:44:39.314Z,1023.1
2017-08-22T02:45:48.517Z,1023.07
2017-08-22T02:46:58.365Z,1023.12
2017-08-22T02:48:08.221Z,1023.12
2017-08-22T02:49:17.420Z,1023.1
2017-08-22T02:50:26.625Z,1023.08
2017-08-22T02:51:35.836Z,1023.07
2017-08-22T02:52:45.369Z,1023.07
2017-08-22T02:53:55.574Z,1023.08
2017-08-22T02:55:05.425Z,1023.08
2017-08-22T02:56:14.626Z,1023.08
2017-08-22T02:57:23.501Z,1023.03
2017-08-22T02:58:33.352Z,1023.08
2017-08-22T02:59:43.202Z,1023.03
2017-08-22T03:00:53.373Z,1023.07
2017-08-22T03:02:03.546Z,1023.06
2017-08-22T03:03:12.749Z,1023.07
2017-08-22T03:04:22.276Z,1023.08
2017-08-22T03:05:31.808Z,1023.07
2017-08-22T03:06:41.362Z,1023.06
2017-08-22T03:07:50.567Z,1023.08
2017-08-22T03:09:00.754Z,1023.12
2017-08-22T03:10:10.279Z,1023.06
2017-08-22T03:11:20.131Z,1023.07
2017-08-22T03:12:29.331Z,1023.06
2017-08-22T03:13:38.530Z,1023.11
2017-08-22T03:14:48.059Z,1023.13
2017-08-22T03:15:57.597Z,1023.11
2017-08-22T03:17:08.101Z,1023.08
2017-08-22T03:18:17.299Z,1023.04
2017-08-22T03:19:27.145Z,1023.1
2017-08-22T03:20:36.668Z,1023.1
2017-08-22T03:21:46.194Z,1023.15
2017-08-22T03:22:55.720Z,1023.08
2017-08-22T03:24:05.572Z,1023.12
2017-08-22T03:25:15.431Z,1023.04
2017-08-22T03:26:24.789Z,1023.03
2017-08-22T03:27:34.001Z,1023.05
2017-08-22T03:28:43.536Z,1023.05
2017-08-22T03:29:52.740Z,1023.02
2017-08-22T03:31:02.915Z,1023.03
2017-08-22T03:32:12.447Z,1023.04
2017-08-22T03:33:21.329Z,1023.07
2017-08-22T03:34:30.861Z,1023
2017-08-22T03:35:41.029Z,1023.01
2017-08-22T03:36:50.573Z,1022.99
2017-08-22T03:37:59.783Z,1022.96
2017-08-22T03:39:09.309Z,1022.99
2017-08-22T03:40:18.846Z,1023
2017-08-22T03:41:28.051Z,1022.98
2017-08-22T03:42:37.898Z,1023.01
2017-08-22T03:43:47.433Z,1022.99
2017-08-22T03:44:57.286Z,1023.01
2017-08-22T03:46:06.812Z,1023.03
2017-08-22T03:47:16.343Z,1023.04
2017-08-22T03:48:25.548Z,1023.01
2017-08-22T03:49:35.445Z,1023
2017-08-22T03:50:44.971Z,1023.02
2017-08-22T03:51:54.499Z,1023.02
2017-08-22T03:53:04.669Z,1023.03
2017-08-22T03:54:14.192Z,1023.04
2017-08-22T03:55:23.395Z,1023.02
2017-08-22T03:56:33.249Z,1023.01
2017-08-22T03:57:42.457Z,1023.02
2017-08-22T03:58:51.661Z,1023.06
2017-08-22T04:00:01.510Z,1023.07
2017-08-22T04:01:11.362Z,1023.02
2017-08-22T04:02:21.542Z,1023.05
2017-08-22T04:03:31.088Z,1023.06
2017-08-22T04:04:40.295Z,1023.07
2017-08-22T04:05:49.823Z,1023.08
2017-08-22T04:06:59.697Z,1023.09
2017-08-22T04:08:09.549Z,1023.08
2017-08-22T04:09:19.398Z,1023.08
2017-08-22T04:10:29.250Z,1023.04
2017-08-22T04:11:38.784Z,1023.06
2017-08-22T04:12:48.633Z,1023.09
2017-08-22T04:13:58.488Z,1023.08
2017-08-22T04:15:07.696Z,1023.08
2017-08-22T04:16:16.577Z,1023.06
2017-08-22T04:17:25.488Z,1023.1
2017-08-22T04:18:34.372Z,1023.1
2017-08-22T04:19:43.572Z,1023.13
2017-08-22T04:20:52.775Z,1023.13
2017-08-22T04:22:02.307Z,1023.11
2017-08-22T04:23:11.832Z,1023.13
2017-08-22T04:24:21.683Z,1023.11
2017-08-22T04:25:30.888Z,1023.07
2017-08-22T04:26:39.800Z,1023.12
2017-08-22T04:27:49.647Z,1023.07
2017-08-22T04:28:59.498Z,1023.07
2017-08-22T04:30:09.028Z,1023.05
2017-08-22T04:31:19.203Z,1023.02
2017-08-22T04:32:28.734Z,1023.01
2017-08-22T04:33:38.310Z,1023.02
2017-08-22T04:34:48.160Z,1022.97
2017-08-22T04:35:57.362Z,1022.98
2017-08-22T04:37:06.888Z,1022.95
2017-08-22T04:38:16.411Z,1022.91
2017-08-22T04:39:25.943Z,1022.9
2017-08-22T04:40:34.826Z,1022.89
2017-08-22T04:41:44.088Z,1022.9
2017-08-22T04:42:53.614Z,1022.9
2017-08-22T04:44:03.140Z,1022.9
2017-08-22T04:45:12.019Z,1022.84
2017-08-22T04:46:21.268Z,1022.88
2017-08-22T04:47:31.168Z,1022.88
2017-08-22T04:48:41.014Z,1022.92
2017-08-22T04:49:50.543Z,1022.9
2017-08-22T04:50:59.762Z,1022.85
2017-08-22T04:52:09.286Z,1022.84
2017-08-22T04:53:18.810Z,1022.79
2017-08-22T04:54:28.014Z,1022.84
2017-08-22T04:55:37.873Z,1022.84
2017-08-22T04:56:47.403Z,1022.8
2017-08-22T04:57:56.926Z,1022.83
2017-08-22T04:59:06.450Z,1022.85
2017-08-22T05:00:15.654Z,1022.83
2017-08-22T05:01:25.508Z,1022.85
2017-08-22T05:02:35.034Z,1022.88
2017-08-22T05:03:44.243Z,1022.82
2017-08-22T05:04:53.770Z,1022.83
2017-08-22T05:06:03.199Z,1022.8
2017-08-22T05:07:12.419Z,1022.79
2017-08-22T05:08:21.658Z,1022.79
2017-08-22T05:09:31.190Z,1022.78
2017-08-22T05:10:40.721Z,1022.79
2017-08-22T05:11:49.923Z,1022.8
2017-08-22T05:12:59.139Z,1022.82
2017-08-22T05:14:08.668Z,1022.79
2017-08-22T05:15:18.197Z,1022.82
2017-08-22T05:16:27.729Z,1022.8
2017-08-22T05:17:37.583Z,1022.79
2017-08-22T05:18:46.887Z,1022.77
2017-08-22T05:19:56.088Z,1022.78
2017-08-22T05:21:05.611Z,1022.82
2017-08-22T05:22:15.143Z,1022.81
2017-08-22T05:23:24.366Z,1022.77
2017-08-22T05:24:33.726Z,1022.81
2017-08-22T05:25:42.607Z,1022.81
2017-08-22T05:26:51.811Z,1022.87
2017-08-22T05:28:01.656Z,1022.86
2017-08-22T05:29:11.505Z,1022.85
2017-08-22T05:30:21.209Z,1022.86
2017-08-22T05:31:30.094Z,1022.84
2017-08-22T05:32:38.989Z,1022.83
2017-08-22T05:33:48.216Z,1022.87
2017-08-22T05:34:57.421Z,1022.85
2017-08-22T05:36:07.421Z,1022.9
2017-08-22T05:37:17.597Z,1022.96
2017-08-22T05:38:27.126Z,1022.99
2017-08-22T05:39:37.300Z,1022.95
2017-08-22T05:40:46.506Z,1022.95
2017-08-22T05:41:56.187Z,1022.97
2017-08-22T05:43:05.722Z,1022.97
2017-08-22T05:44:15.906Z,1023
2017-08-22T05:45:25.434Z,1022.98
2017-08-22T05:46:35.297Z,1023.01
2017-08-22T05:47:45.025Z,1022.98
2017-08-22T05:48:54.604Z,1023.01
2017-08-22T05:50:04.456Z,1022.96
2017-08-22T05:51:13.336Z,1023.02
2017-08-22T05:52:23.193Z,1023.04
2017-08-22T05:53:33.046Z,1023.03
2017-08-22T05:54:42.568Z,1023.01
2017-08-22T05:55:51.451Z,1023.02
2017-08-22T05:57:00.984Z,1023.02
2017-08-22T05:58:10.514Z,1023.04
2017-08-22T05:59:20.101Z,1023.03
2017-08-22T06:00:29.624Z,1023.04
2017-08-22T06:01:38.826Z,1023.05
2017-08-22T06:02:48.675Z,1023.02
2017-08-22T06:03:57.881Z,1023.08
2017-08-22T06:05:08.211Z,1023.05
2017-08-22T06:06:17.416Z,1023.06
2017-08-22T06:07:26.616Z,1023.04
2017-08-22T06:08:36.462Z,1023.06
2017-08-22T06:09:45.670Z,1023.09
2017-08-22T06:10:55.769Z,1023.09
2017-08-22T06:12:05.296Z,1023.07
2017-08-22T06:13:15.149Z,1023.09
2017-08-22T06:14:24.998Z,1023.08
2017-08-22T06:15:35.174Z,1023.11
2017-08-22T06:16:44.204Z,1023.13
2017-08-22T06:17:54.381Z,1023.16
2017-08-22T06:19:04.238Z,1023.14
2017-08-22T06:20:14.084Z,1023.13
2017-08-22T06:21:23.609Z,1023.1
2017-08-22T06:22:33.510Z,1023.12
2017-08-22T06:23:43.043Z,1023.09
2017-08-22T06:24:52.582Z,1023.11
2017-08-22T06:26:02.753Z,1023.17
2017-08-22T06:27:11.956Z,1023.1
2017-08-22T06:28:21.481Z,1023.14
2017-08-22T06:29:31.019Z,1023.18
2017-08-22T06:30:40.550Z,1023.2
2017-08-22T06:31:50.077Z,1023.16
2017-08-22T06:32:59.613Z,1023.16
2017-08-22T06:34:09.294Z,1023.17
2017-08-22T06:35:18.828Z,1023.19
2017-08-22T06:36:28.362Z,1023.19
2017-08-22T06:37:37.568Z,1023.19
2017-08-22T06:38:47.430Z,1023.2
2017-08-22T06:39:56.640Z,1023.19
2017-08-22T06:41:05.527Z,1023.15
2017-08-22T06:42:14.738Z,1023.15
2017-08-22T06:43:24.601Z,1023.12
2017-08-22T06:44:34.458Z,1023.13
2017-08-22T06:45:43.759Z,1023.16
2017-08-22T06:46:52.962Z,1023.14
2017-08-22T06:48:02.177Z,1023.16
2017-08-22T06:49:11.393Z,1023.17
2017-08-22T06:50:20.926Z,1023.14
2017-08-22T06:51:30.279Z,1023.14
2017-08-22T06:52:40.134Z,1023.11
2017-08-22T06:53:49.341Z,1023.16
2017-08-22T06:54:59.531Z,1023.17
2017-08-22T06:56:08.742Z,1023.16
2017-08-22T06:57:18.373Z,1023.21
2017-08-22T06:58:27.581Z,1023.25
2017-08-22T06:59:37.107Z,1023.25
2017-08-22T07:00:46.637Z,1023.25
2017-08-22T07:01:56.486Z,1023.28
2017-08-22T07:03:05.843Z,1023.28
2017-08-22T07:04:15.379Z,1023.25
2017-08-22T07:05:25.234Z,1023.3
2017-08-22T07:06:34.768Z,1023.3
2017-08-22T07:07:43.997Z,1023.26
2017-08-22T07:08:53.777Z,1023.26
2017-08-22T07:10:03.626Z,1023.26
2017-08-22T07:11:13.155Z,1023.23
2017-08-22T07:12:23.011Z,1023.26
2017-08-22T07:13:32.217Z,1023.25
2017-08-22T07:14:41.796Z,1023.24
2017-08-22T07:15:51.327Z,1023.24
2017-08-22T07:17:01.506Z,1023.24
2017-08-22T07:18:11.358Z,1023.24
2017-08-22T07:19:20.889Z,1023.23
2017-08-22T07:20:30.898Z,1023.26
2017-08-22T07:21:40.108Z,1023.27
2017-08-22T07:22:50.289Z,1023.27
2017-08-22T07:24:00.464Z,1023.31
2017-08-22T07:25:09.669Z,1023.32
2017-08-22T07:26:19.250Z,1023.31
2017-08-22T07:27:29.112Z,1023.28
2017-08-22T07:28:38.318Z,1023.31
2017-08-22T07:29:47.574Z,1023.33
2017-08-22T07:30:57.105Z,1023.29
2017-08-22T07:32:07.428Z,1023.33
2017-08-22T07:33:16.955Z,1023.34
2017-08-22T07:34:26.160Z,1023.3
2017-08-22T07:35:36.338Z,1023.34
2017-08-22T07:36:45.545Z,1023.34
2017-08-22T07:37:54.759Z,1023.34
2017-08-22T07:39:03.974Z,1023.35
2017-08-22T07:40:13.179Z,1023.32
2017-08-22T07:41:23.029Z,1023.35
2017-08-22T07:42:32.889Z,1023.34
2017-08-22T07:43:42.517Z,1023.34
2017-08-22T07:44:52.048Z,1023.38
2017-08-22T07:46:01.587Z,1023.37
2017-08-22T07:47:10.797Z,1023.38
2017-08-22T07:48:20.326Z,1023.33
2017-08-22T07:49:29.689Z,1023.37
2017-08-22T07:50:38.894Z,1023.4
2017-08-22T07:51:48.425Z,1023.38
2017-08-22T07:52:57.313Z,1023.36
2017-08-22T07:54:07.170Z,1023.38
2017-08-22T07:55:16.496Z,1023.38
2017-08-22T07:56:26.351Z,1023.41
2017-08-22T07:57:35.884Z,1023.38
2017-08-22T07:58:46.072Z,1023.41
2017-08-22T07:59:55.610Z,1023.39
2017-08-22T08:01:05.193Z,1023.37
2017-08-22T08:02:15.080Z,1023.34
2017-08-22T08:03:24.303Z,1023.37
2017-08-22T08:04:33.840Z,1023.33
2017-08-22T08:05:43.372Z,1023.35
2017-08-22T08:06:52.663Z,1023.41
2017-08-22T08:08:02.873Z,1023.37
2017-08-22T08:09:12.406Z,1023.42
2017-08-22T08:10:21.618Z,1023.37
2017-08-22T08:11:30.840Z,1023.38
2017-08-22T08:12:41.170Z,1023.39
2017-08-22T08:13:51.020Z,1023.39
2017-08-22T08:15:01.200Z,1023.36
2017-08-22T08:16:11.382Z,1023.37
2017-08-22T08:17:20.914Z,1023.35
2017-08-22T08:18:30.751Z,1023.27
2017-08-22T08:19:40.281Z,1023.28
2017-08-22T08:20:49.859Z,1023.24
2017-08-22T08:21:59.717Z,1023.23
2017-08-22T08:23:09.579Z,1023.31
2017-08-22T08:24:18.845Z,1023.26
2017-08-22T08:25:28.049Z,1023.24
2017-08-22T08:26:37.262Z,1023.23
2017-08-22T08:27:46.470Z,1023.25
2017-08-22T08:28:55.687Z,1023.24
2017-08-22T08:30:05.692Z,1023.23
2017-08-22T08:31:14.903Z,1023.28
2017-08-22T08:32:24.435Z,1023.26
2017-08-22T08:33:33.320Z,1023.36
2017-08-22T08:34:42.526Z,1023.38
2017-08-22T08:35:51.840Z,1023.32
2017-08-22T08:37:01.044Z,1023.31
2017-08-22T08:38:10.253Z,1023.37
2017-08-22T08:39:19.794Z,1023.34
2017-08-22T08:40:29.646Z,1023.36
2017-08-22T08:41:39.824Z,1023.31
2017-08-22T08:42:49.556Z,1023.29
2017-08-22T08:43:59.413Z,1023.32
2017-08-22T08:45:08.952Z,1023.27
2017-08-22T08:46:18.477Z,1023.3
2017-08-22T08:47:28.482Z,1023.32
2017-08-22T08:48:37.367Z,1023.33
2017-08-22T08:49:47.221Z,1023.29
2017-08-22T08:50:57.126Z,1023.32
2017-08-22T08:52:07.644Z,1023.3
2017-08-22T08:53:16.582Z,1023.3
2017-08-22T08:54:26.120Z,1023.3
2017-08-22T08:55:35.658Z,1023.25
2017-08-22T08:56:45.213Z,1023.27
2017-08-22T08:57:55.067Z,1023.27
2017-08-22T08:59:05.124Z,1023.33
2017-08-22T09:00:14.982Z,1023.3
2017-08-22T09:01:24.518Z,1023.29
2017-08-22T09:02:33.730Z,1023.28
2017-08-22T09:03:43.908Z,1023.28
2017-08-22T09:04:53.913Z,1023.29
2017-08-22T09:06:04.099Z,1023.27
2017-08-22T09:07:14.275Z,1023.28
2017-08-22T09:08:24.129Z,1023.29
2017-08-22T09:09:33.340Z,1023.28
2017-08-22T09:10:43.206Z,1023.29
2017-08-22T09:11:53.066Z,1023.34
2017-08-22T09:13:03.246Z,1023.32
2017-08-22T09:14:12.779Z,1023.28
2017-08-22T09:15:22.637Z,1023.28
2017-08-22T09:16:32.318Z,1023.31
2017-08-22T09:17:41.846Z,1023.29
2017-08-22T09:18:51.058Z,1023.32
2017-08-22T09:20:00.599Z,1023.28
2017-08-22T09:21:10.786Z,1023.32
2017-08-22T09:22:20.527Z,1023.29
2017-08-22T09:23:29.740Z,1023.37
2017-08-22T09:24:39.922Z,1023.35
2017-08-22T09:25:49.141Z,1023.36
2017-08-22T09:26:58.347Z,1023.33
2017-08-22T09:28:08.632Z,1023.35
2017-08-22T09:29:18.489Z,1023.4
2017-08-22T09:30:28.343Z,1023.38
2017-08-22T09:31:37.558Z,1023.37
2017-08-22T09:32:47.097Z,1023.39
2017-08-22T09:33:56.555Z,1023.34
2017-08-22T09:35:05.793Z,1023.35
2017-08-22T09:36:15.656Z,1023.36
2017-08-22T09:37:24.864Z,1023.34
2017-08-22T09:38:34.075Z,1023.33
2017-08-22T09:39:43.656Z,1023.37
2017-08-22T09:40:52.866Z,1023.34
2017-08-22T09:42:02.724Z,1023.33
2017-08-22T09:43:12.259Z,1023.27
2017-08-22T09:44:22.115Z,1023.3
2017-08-22T09:45:31.951Z,1023.32
2017-08-22T09:46:41.169Z,1023.29
2017-08-22T09:47:50.375Z,1023.3
2017-08-22T09:48:59.927Z,1023.28
2017-08-22T09:50:09.139Z,1023.29
2017-08-22T09:51:18.971Z,1023.27
2017-08-22T09:52:29.157Z,1023.23
2017-08-22T09:53:38.373Z,1023.26
2017-08-22T09:54:48.233Z,1023.18
2017-08-22T09:55:57.123Z,1023.21
2017-08-22T09:57:06.985Z,1023.24
2017-08-22T09:58:16.846Z,1023.22
2017-08-22T09:59:26.715Z,1023.24
2017-08-22T10:00:36.261Z,1023.25
2017-08-22T10:01:45.472Z,1023.21
2017-08-22T10:02:55.102Z,1023.24
2017-08-22T10:04:04.310Z,1023.17
2017-08-22T10:05:13.841Z,1023.19
2017-08-22T10:06:23.374Z,1023.12
2017-08-22T10:07:32.581Z,1023.14
2017-08-22T10:08:42.095Z,1023.14
2017-08-22T10:09:51.626Z,1023.15
2017-08-22T10:11:01.160Z,1023.16
2017-08-22T10:12:10.698Z,1023.19
2017-08-22T10:13:19.906Z,1023.14
2017-08-22T10:14:29.375Z,1023.16
2017-08-22T10:15:38.589Z,1023.17
2017-08-22T10:16:48.453Z,1023.12
2017-08-22T10:17:58.312Z,1023.15
2017-08-22T10:19:08.169Z,1023.13
2017-08-22T10:20:18.091Z,1023.14
2017-08-22T10:21:27.668Z,1023.12
2017-08-22T10:22:36.881Z,1023.13
2017-08-22T10:23:46.413Z,1023.12
2017-08-22T10:24:55.946Z,1023.11
2017-08-22T10:26:05.206Z,1023.12
2017-08-22T10:27:14.737Z,1023.13
2017-08-22T10:28:23.949Z,1023.1
2017-08-22T10:29:33.803Z,1023.07
2017-08-22T10:30:43.011Z,1023.08
2017-08-22T10:31:53.021Z,1023.08
2017-08-22T10:33:02.551Z,1023.07
2017-08-22T10:34:12.407Z,1023.09
2017-08-22T10:35:21.940Z,1023.09
2017-08-22T10:36:31.156Z,1023.08
2017-08-22T10:37:40.414Z,1023.05
2017-08-22T10:38:49.622Z,1023.09
2017-08-22T10:39:59.159Z,1023.07
2017-08-22T10:41:08.045Z,1023.12
2017-08-22T10:42:18.230Z,1023.12
2017-08-22T10:43:28.458Z,1023.09
2017-08-22T10:44:37.668Z,1023.08
2017-08-22T10:45:46.560Z,1023.13
2017-08-22T10:46:56.418Z,1023.11
2017-08-22T10:48:06.602Z,1023.1
2017-08-22T10:49:16.618Z,1023.14
2017-08-22T10:50:25.555Z,1023.1
2017-08-22T10:51:34.770Z,1023.1
2017-08-22T10:52:43.987Z,1023.07
2017-08-22T10:53:53.542Z,1023.05
2017-08-22T10:55:02.578Z,1023.08
2017-08-22T10:56:12.434Z,1023.08
2017-08-22T10:57:21.316Z,1023.1
2017-08-22T10:58:31.175Z,1023.09
2017-08-22T10:59:41.074Z,1023.04
2017-08-22T11:00:50.757Z,1023.02
2017-08-22T11:02:00.611Z,1023
2017-08-22T11:03:10.842Z,1023.01
2017-08-22T11:04:21.057Z,1023.02
2017-08-22T11:05:30.915Z,1022.98
2017-08-22T11:06:40.990Z,1023.01
2017-08-22T11:07:50.849Z,1022.89
2017-08-22T11:09:00.063Z,1022.97
2017-08-22T11:10:09.922Z,1022.95
2017-08-22T11:11:20.104Z,1022.9
2017-08-22T11:12:29.451Z,1022.9
2017-08-22T11:13:38.665Z,1022.88
2017-08-22T11:14:48.199Z,1022.93
2017-08-22T11:15:57.414Z,1022.92
2017-08-22T11:17:06.625Z,1022.93
2017-08-22T11:18:17.279Z,1022.9
2017-08-22T11:19:26.816Z,1022.88
2017-08-22T11:20:36.022Z,1022.89
2017-08-22T11:21:45.910Z,1022.9
2017-08-22T11:22:55.447Z,1022.87
2017-08-22T11:24:05.051Z,1022.88
2017-08-22T11:25:13.938Z,1022.86
2017-08-22T11:26:23.501Z,1022.86
2017-08-22T11:27:33.046Z,1022.85
2017-08-22T11:28:42.286Z,1022.9
2017-08-22T11:29:52.043Z,1022.88
2017-08-22T11:31:02.367Z,1022.87
2017-08-22T11:32:12.002Z,1022.82
2017-08-22T11:33:22.201Z,1022.88
2017-08-22T11:34:31.749Z,1022.85
2017-08-22T11:35:41.279Z,1022.87
2017-08-22T11:36:50.491Z,1022.89
2017-08-22T11:38:00.381Z,1022.89
2017-08-22T11:39:10.173Z,1022.89
2017-08-22T11:40:19.719Z,1022.85
2017-08-22T11:41:29.877Z,1022.81
2017-08-22T11:42:39.413Z,1022.79
2017-08-22T11:43:48.630Z,1022.78
2017-08-22T11:44:58.489Z,1022.81
2017-08-22T11:46:08.360Z,1022.79
2017-08-22T11:47:18.284Z,1022.81
2017-08-22T11:48:28.146Z,1022.83
2017-08-22T11:49:38.006Z,1022.81
2017-08-22T11:50:47.218Z,1022.82
2017-08-22T11:51:57.108Z,1022.85
2017-08-22T11:53:06.195Z,1022.85
2017-08-22T11:54:15.731Z,1022.84
2017-08-22T11:55:25.591Z,1022.86
2017-08-22T11:56:35.118Z,1022.86
2017-08-22T11:57:45.296Z,1022.8
2017-08-22T11:58:54.562Z,1022.8
2017-08-22T12:00:04.111Z,1022.81
2017-08-22T12:01:13.977Z,1022.84
2017-08-22T12:02:23.840Z,1022.77
2017-08-22T12:03:33.376Z,1022.76
2017-08-22T12:04:42.963Z,1022.79
2017-08-22T12:05:52.837Z,1022.76
2017-08-22T12:07:02.062Z,1022.8
2017-08-22T12:08:11.922Z,1022.75
2017-08-22T12:09:21.507Z,1022.78
2017-08-22T12:10:31.094Z,1022.73
2017-08-22T12:11:40.628Z,1022.71
2017-08-22T12:12:50.169Z,1022.73
2017-08-22T12:13:59.393Z,1022.69
2017-08-22T12:15:08.934Z,1022.71
2017-08-22T12:16:18.298Z,1022.74
2017-08-22T12:17:27.185Z,1022.73
2017-08-22T12:18:36.726Z,1022.74
2017-08-22T12:19:45.614Z,1022.74
2017-08-22T12:20:55.473Z,1022.72
2017-08-22T12:22:05.309Z,1022.78
2017-08-22T12:23:14.522Z,1022.77
2017-08-22T12:24:23.730Z,1022.7
2017-08-22T12:25:33.273Z,1022.71
2017-08-22T12:26:42.818Z,1022.69
2017-08-22T12:27:52.454Z,1022.69
2017-08-22T12:29:01.993Z,1022.68
2017-08-22T12:30:11.866Z,1022.67
2017-08-22T12:31:21.078Z,1022.63
2017-08-22T12:32:30.291Z,1022.64
2017-08-22T12:33:39.978Z,1022.66
2017-08-22T12:34:49.841Z,1022.69
2017-08-22T12:35:59.423Z,1022.68
2017-08-22T12:37:08.973Z,1022.65
2017-08-22T12:38:18.510Z,1022.65
2017-08-22T12:39:28.323Z,1022.65
2017-08-22T12:40:38.185Z,1022.69
2017-08-22T12:41:48.048Z,1022.65
2017-08-22T12:42:57.588Z,1022.66
2017-08-22T12:44:07.119Z,1022.66
2017-08-22T12:45:16.729Z,1022.7
2017-08-22T12:46:25.636Z,1022.68
2017-08-22T12:47:34.854Z,1022.7
2017-08-22T12:48:44.071Z,1022.73
2017-08-22T12:49:53.602Z,1022.67
2017-08-22T12:51:03.946Z,1022.69
2017-08-22T12:52:13.158Z,1022.7
2017-08-22T12:53:22.692Z,1022.68
2017-08-22T12:54:32.555Z,1022.67
2017-08-22T12:55:42.411Z,1022.66
2017-08-22T12:56:51.771Z,1022.66
2017-08-22T12:58:01.950Z,1022.66
2017-08-22T12:59:11.492Z,1022.68
2017-08-22T13:00:20.705Z,1022.62
2017-08-22T13:01:29.918Z,1022.63
2017-08-22T13:02:39.603Z,1022.57
2017-08-22T13:03:48.814Z,1022.6
2017-08-22T13:04:58.349Z,1022.53
2017-08-22T13:06:07.892Z,1022.59
2017-08-22T13:07:18.072Z,1022.55
2017-08-22T13:08:27.780Z,1022.55
2017-08-22T13:09:37.028Z,1022.55
2017-08-22T13:10:46.563Z,1022.58
2017-08-22T13:11:56.099Z,1022.61
2017-08-22T13:13:05.679Z,1022.62
2017-08-22T13:14:15.317Z,1022.57
2017-08-22T13:15:24.535Z,1022.64
2017-08-22T13:16:34.071Z,1022.61
2017-08-22T13:17:43.610Z,1022.6
2017-08-22T13:18:52.828Z,1022.56
2017-08-22T13:20:02.465Z,1022.56
2017-08-22T13:21:11.686Z,1022.56
2017-08-22T13:22:21.550Z,1022.52
2017-08-22T13:23:30.774Z,1022.45
2017-08-22T13:24:40.643Z,1022.46
2017-08-22T13:25:50.808Z,1022.52
2017-08-22T13:26:59.716Z,1022.53
2017-08-22T13:28:08.927Z,1022.5
2017-08-22T13:29:18.469Z,1022.49
2017-08-22T13:30:28.011Z,1022.51
2017-08-22T13:31:37.804Z,1022.51
2017-08-22T13:32:47.018Z,1022.49
2017-08-22T13:33:55.921Z,1022.54
2017-08-22T13:35:05.797Z,1022.5
2017-08-22T13:36:15.352Z,1022.53
2017-08-22T13:37:24.394Z,1022.51
2017-08-22T13:38:34.251Z,1022.54
2017-08-22T13:39:43.473Z,1022.53
2017-08-22T13:40:53.334Z,1022.55
2017-08-22T13:42:02.877Z,1022.49
2017-08-22T13:43:12.890Z,1022.46
2017-08-22T13:44:22.426Z,1022.44
2017-08-22T13:45:31.961Z,1022.45
2017-08-22T13:46:41.495Z,1022.52
2017-08-22T13:47:51.136Z,1022.59
2017-08-22T13:49:00.678Z,1022.56
2017-08-22T13:50:10.749Z,1022.58
2017-08-22T13:51:20.614Z,1022.55
2017-08-22T13:52:30.477Z,1022.53
2017-08-22T13:53:40.347Z,1022.43
2017-08-22T13:54:49.566Z,1022.42
2017-08-22T13:55:59.115Z,1022.37
2017-08-22T13:57:08.331Z,1022.38
2017-08-22T13:58:17.549Z,1022.38
2017-08-22T13:59:27.092Z,1022.37
2017-08-22T14:00:37.156Z,1022.38
2017-08-22T14:01:47.032Z,1022.54
2017-08-22T14:02:56.571Z,1022.35
2017-08-22T14:04:05.790Z,1022.35